sensor_id;sensor_type;location;lat;lon;timestamp;P1;durP1;ratioP1;P2;durP2;ratioP2
31442;SDS011;18065;55.876;9.830;2023-02-08T00:01:30;3.05;;;2.05;;
31442;SDS011;18065;55.876;9.830;2023-02-08T00:03:59;2.42;;;1.50;;
31442;SDS011;18065;55.876;9.830;2023-02-08T00:06:28;3.03;;;1.50;;
31442;SDS011;18065;55.876;9.830;2023-02-08T00:08:56;3.83;;;1.80;;
31442;SDS011;18065;55.876;9.830;2023-02-08T00:11:25;3.08;;;1.50;;
31442;SDS011;18065;55.876;9.830;2023-02-08T00:13:57;3.67;;;1.92;;
31442;SDS011;18065;55.876;9.830;2023-02-08T00:16:25;3.13;;;1.75;;
31442;SDS011;18065;55.876;9.830;2023-02-08T00:18:54;7.32;;;1.98;;
31442;SDS011;18065;55.876;9.830;2023-02-08T00:21:23;2.47;;;1.83;;
31442;SDS011;18065;55.876;9.830;2023-02-08T00:23:51;4.03;;;1.83;;
31442;SDS011;18065;55.876;9.830;2023-02-08T00:26:20;4.38;;;1.95;;
31442;SDS011;18065;55.876;9.830;2023-02-08T00:28:49;3.78;;;1.63;;
31442;SDS011;18065;55.876;9.830;2023-02-08T00:31:20;2.95;;;1.70;;
31442;SDS011;18065;55.876;9.830;2023-02-08T00:33:48;3.25;;;1.88;;
31442;SDS011;18065;55.876;9.830;2023-02-08T00:36:17;2.30;;;1.67;;
31442;SDS011;18065;55.876;9.830;2023-02-08T00:38:46;3.05;;;1.77;;
31442;SDS011;18065;55.876;9.830;2023-02-08T00:41:15;4.15;;;1.73;;
31442;SDS011;18065;55.876;9.830;2023-02-08T00:43:43;5.65;;;1.90;;
31442;SDS011;18065;55.876;9.830;2023-02-08T00:46:12;3.92;;;1.88;;
31442;SDS011;18065;55.876;9.830;2023-02-08T00:48:43;4.18;;;2.05;;
31442;SDS011;18065;55.876;9.830;2023-02-08T00:51:12;2.97;;;1.85;;
31442;SDS011;18065;55.876;9.830;2023-02-08T00:53:42;3.28;;;1.85;;
31442;SDS011;18065;55.876;9.830;2023-02-08T00:56:12;4.72;;;1.90;;
31442;SDS011;18065;55.876;9.830;2023-02-08T00:58:41;5.20;;;2.05;;
31442;SDS011;18065;55.876;9.830;2023-02-08T01:01:10;4.85;;;1.80;;
31442;SDS011;18065;55.876;9.830;2023-02-08T01:03:39;4.70;;;2.20;;
31442;SDS011;18065;55.876;9.830;2023-02-08T01:06:13;3.53;;;1.73;;
31442;SDS011;18065;55.876;9.830;2023-02-08T01:08:43;3.70;;;1.90;;
31442;SDS011;18065;55.876;9.830;2023-02-08T01:11:13;3.55;;;1.63;;
31442;SDS011;18065;55.876;9.830;2023-02-08T01:13:46;3.45;;;1.42;;
31442;SDS011;18065;55.876;9.830;2023-02-08T01:16:15;4.03;;;1.80;;
31442;SDS011;18065;55.876;9.830;2023-02-08T01:18:48;4.18;;;1.73;;
31442;SDS011;18065;55.876;9.830;2023-02-08T01:23:48;3.00;;;1.50;;
31442;SDS011;18065;55.876;9.830;2023-02-08T01:26:17;2.15;;;1.52;;
31442;SDS011;18065;55.876;9.830;2023-02-08T01:28:47;2.97;;;1.73;;
31442;SDS011;18065;55.876;9.830;2023-02-08T01:31:17;3.17;;;1.80;;
31442;SDS011;18065;55.876;9.830;2023-02-08T01:33:49;3.85;;;1.33;;
31442;SDS011;18065;55.876;9.830;2023-02-08T01:36:18;3.85;;;1.50;;
31442;SDS011;18065;55.876;9.830;2023-02-08T01:38:46;3.35;;;1.60;;
31442;SDS011;18065;55.876;9.830;2023-02-08T01:41:16;3.60;;;1.73;;
31442;SDS011;18065;55.876;9.830;2023-02-08T01:44:00;3.45;;;1.80;;
31442;SDS011;18065;55.876;9.830;2023-02-08T01:46:32;1.77;;;1.27;;
31442;SDS011;18065;55.876;9.830;2023-02-08T01:49:05;2.60;;;1.45;;
31442;SDS011;18065;55.876;9.830;2023-02-08T01:51:38;1.83;;;1.40;;
31442;SDS011;18065;55.876;9.830;2023-02-08T01:56:41;3.22;;;1.77;;
31442;SDS011;18065;55.876;9.830;2023-02-08T01:59:12;2.25;;;1.58;;
31442;SDS011;18065;55.876;9.830;2023-02-08T02:01:45;3.67;;;1.63;;
31442;SDS011;18065;55.876;9.830;2023-02-08T02:04:18;3.25;;;1.58;;
31442;SDS011;18065;55.876;9.830;2023-02-08T02:06:47;2.38;;;1.52;;
31442;SDS011;18065;55.876;9.830;2023-02-08T02:09:20;3.97;;;1.80;;
31442;SDS011;18065;55.876;9.830;2023-02-08T02:11:53;4.22;;;1.85;;
31442;SDS011;18065;55.876;9.830;2023-02-08T02:14:22;3.38;;;1.48;;
31442;SDS011;18065;55.876;9.830;2023-02-08T02:16:51;2.63;;;1.50;;
31442;SDS011;18065;55.876;9.830;2023-02-08T02:19:24;3.25;;;1.80;;
31442;SDS011;18065;55.876;9.830;2023-02-08T02:22:01;4.32;;;1.88;;
31442;SDS011;18065;55.876;9.830;2023-02-08T02:25:01;3.95;;;1.70;;
31442;SDS011;18065;55.876;9.830;2023-02-08T02:27:59;3.95;;;1.73;;
31442;SDS011;18065;55.876;9.830;2023-02-08T02:33:47;4.22;;;2.08;;
31442;SDS011;18065;55.876;9.830;2023-02-08T02:36:23;6.40;;;1.80;;
31442;SDS011;18065;55.876;9.830;2023-02-08T02:39:00;4.68;;;1.45;;
31442;SDS011;18065;55.876;9.830;2023-02-08T02:41:38;6.55;;;2.25;;
31442;SDS011;18065;55.876;9.830;2023-02-08T02:44:27;4.65;;;1.90;;
31442;SDS011;18065;55.876;9.830;2023-02-08T02:47:04;3.55;;;1.63;;
31442;SDS011;18065;55.876;9.830;2023-02-08T02:49:43;3.97;;;1.85;;
31442;SDS011;18065;55.876;9.830;2023-02-08T02:52:18;4.78;;;2.05;;
31442;SDS011;18065;55.876;9.830;2023-02-08T02:54:57;2.38;;;1.42;;
31442;SDS011;18065;55.876;9.830;2023-02-08T02:57:30;3.90;;;1.58;;
31442;SDS011;18065;55.876;9.830;2023-02-08T03:00:01;3.08;;;1.60;;
31442;SDS011;18065;55.876;9.830;2023-02-08T03:02:34;4.43;;;1.75;;
31442;SDS011;18065;55.876;9.830;2023-02-08T03:05:08;4.22;;;1.83;;
31442;SDS011;18065;55.876;9.830;2023-02-08T03:07:59;2.78;;;1.30;;
31442;SDS011;18065;55.876;9.830;2023-02-08T03:10:40;4.32;;;1.70;;
31442;SDS011;18065;55.876;9.830;2023-02-08T03:13:30;3.40;;;1.90;;
31442;SDS011;18065;55.876;9.830;2023-02-08T03:16:07;7.60;;;2.00;;
31442;SDS011;18065;55.876;9.830;2023-02-08T03:18:46;4.05;;;1.70;;
31442;SDS011;18065;55.876;9.830;2023-02-08T03:21:31;4.30;;;1.83;;
31442;SDS011;18065;55.876;9.830;2023-02-08T03:24:10;3.78;;;1.55;;
31442;SDS011;18065;55.876;9.830;2023-02-08T03:26:51;4.80;;;1.60;;
31442;SDS011;18065;55.876;9.830;2023-02-08T03:29:26;2.22;;;1.52;;
31442;SDS011;18065;55.876;9.830;2023-02-08T03:32:07;3.50;;;1.42;;
31442;SDS011;18065;55.876;9.830;2023-02-08T03:34:42;2.78;;;1.52;;
31442;SDS011;18065;55.876;9.830;2023-02-08T03:37:18;4.35;;;1.80;;
31442;SDS011;18065;55.876;9.830;2023-02-08T03:39:50;3.83;;;1.58;;
31442;SDS011;18065;55.876;9.830;2023-02-08T03:42:24;2.33;;;1.38;;
31442;SDS011;18065;55.876;9.830;2023-02-08T03:44:56;3.83;;;1.50;;
31442;SDS011;18065;55.876;9.830;2023-02-08T03:47:28;3.20;;;1.40;;
31442;SDS011;18065;55.876;9.830;2023-02-08T03:50:02;3.17;;;1.60;;
31442;SDS011;18065;55.876;9.830;2023-02-08T03:52:36;3.08;;;1.65;;
31442;SDS011;18065;55.876;9.830;2023-02-08T03:55:07;2.58;;;1.65;;
31442;SDS011;18065;55.876;9.830;2023-02-08T03:57:41;2.67;;;1.50;;
31442;SDS011;18065;55.876;9.830;2023-02-08T04:00:15;5.20;;;1.80;;
31442;SDS011;18065;55.876;9.830;2023-02-08T04:02:48;3.78;;;1.52;;
31442;SDS011;18065;55.876;9.830;2023-02-08T04:05:21;1.98;;;1.15;;
31442;SDS011;18065;55.876;9.830;2023-02-08T04:07:53;1.92;;;1.30;;
31442;SDS011;18065;55.876;9.830;2023-02-08T04:10:22;3.92;;;1.80;;
31442;SDS011;18065;55.876;9.830;2023-02-08T04:12:51;2.78;;;1.40;;
31442;SDS011;18065;55.876;9.830;2023-02-08T04:15:19;4.70;;;1.48;;
31442;SDS011;18065;55.876;9.830;2023-02-08T04:17:51;3.08;;;1.52;;
31442;SDS011;18065;55.876;9.830;2023-02-08T04:20:20;3.97;;;1.40;;
31442;SDS011;18065;55.876;9.830;2023-02-08T04:22:49;4.80;;;1.52;;
31442;SDS011;18065;55.876;9.830;2023-02-08T04:25:20;2.40;;;1.40;;
31442;SDS011;18065;55.876;9.830;2023-02-08T04:27:49;3.60;;;1.58;;
31442;SDS011;18065;55.876;9.830;2023-02-08T04:30:18;1.88;;;1.40;;
31442;SDS011;18065;55.876;9.830;2023-02-08T04:32:46;1.80;;;1.35;;
31442;SDS011;18065;55.876;9.830;2023-02-08T04:35:15;2.08;;;1.20;;
31442;SDS011;18065;55.876;9.830;2023-02-08T04:37:44;1.95;;;1.10;;
31442;SDS011;18065;55.876;9.830;2023-02-08T04:40:13;3.92;;;1.50;;
31442;SDS011;18065;55.876;9.830;2023-02-08T04:42:44;3.67;;;1.55;;
31442;SDS011;18065;55.876;9.830;2023-02-08T04:45:13;2.45;;;1.42;;
31442;SDS011;18065;55.876;9.830;2023-02-08T04:47:42;2.38;;;1.30;;
31442;SDS011;18065;55.876;9.830;2023-02-08T04:50:10;1.85;;;1.30;;
31442;SDS011;18065;55.876;9.830;2023-02-08T04:52:39;2.83;;;1.40;;
31442;SDS011;18065;55.876;9.830;2023-02-08T04:55:08;2.65;;;1.48;;
31442;SDS011;18065;55.876;9.830;2023-02-08T04:57:36;2.60;;;1.30;;
31442;SDS011;18065;55.876;9.830;2023-02-08T05:00:09;2.10;;;1.30;;
31442;SDS011;18065;55.876;9.830;2023-02-08T05:02:38;3.33;;;1.40;;
31442;SDS011;18065;55.876;9.830;2023-02-08T05:05:07;4.28;;;1.60;;
31442;SDS011;18065;55.876;9.830;2023-02-08T05:07:36;1.77;;;1.13;;
31442;SDS011;18065;55.876;9.830;2023-02-08T05:10:05;3.40;;;1.40;;
31442;SDS011;18065;55.876;9.830;2023-02-08T05:12:35;3.00;;;1.30;;
31442;SDS011;18065;55.876;9.830;2023-02-08T05:15:04;2.88;;;1.65;;
31442;SDS011;18065;55.876;9.830;2023-02-08T05:17:35;2.13;;;1.30;;
31442;SDS011;18065;55.876;9.830;2023-02-08T05:20:04;2.90;;;1.55;;
31442;SDS011;18065;55.876;9.830;2023-02-08T05:22:34;2.88;;;1.60;;
31442;SDS011;18065;55.876;9.830;2023-02-08T05:25:03;3.53;;;1.58;;
31442;SDS011;18065;55.876;9.830;2023-02-08T05:27:32;2.30;;;1.42;;
31442;SDS011;18065;55.876;9.830;2023-02-08T05:30:02;2.90;;;1.60;;
31442;SDS011;18065;55.876;9.830;2023-02-08T05:32:31;2.72;;;1.98;;
31442;SDS011;18065;55.876;9.830;2023-02-08T05:35:03;3.13;;;1.73;;
31442;SDS011;18065;55.876;9.830;2023-02-08T05:37:32;3.10;;;1.63;;
31442;SDS011;18065;55.876;9.830;2023-02-08T05:40:01;4.30;;;1.65;;
31442;SDS011;18065;55.876;9.830;2023-02-08T05:42:30;3.40;;;1.52;;
31442;SDS011;18065;55.876;9.830;2023-02-08T05:44:58;3.25;;;1.60;;
31442;SDS011;18065;55.876;9.830;2023-02-08T05:47:27;5.82;;;1.77;;
31442;SDS011;18065;55.876;9.830;2023-02-08T05:49:58;3.22;;;2.00;;
31442;SDS011;18065;55.876;9.830;2023-02-08T05:52:27;5.45;;;1.67;;
31442;SDS011;18065;55.876;9.830;2023-02-08T05:54:56;6.70;;;1.90;;
31442;SDS011;18065;55.876;9.830;2023-02-08T05:57:25;4.38;;;1.75;;
31442;SDS011;18065;55.876;9.830;2023-02-08T05:59:53;6.75;;;1.98;;
31442;SDS011;18065;55.876;9.830;2023-02-08T06:02:22;3.17;;;1.75;;
31442;SDS011;18065;55.876;9.830;2023-02-08T06:04:54;3.67;;;1.90;;
31442;SDS011;18065;55.876;9.830;2023-02-08T06:07:25;4.90;;;2.10;;
31442;SDS011;18065;55.876;9.830;2023-02-08T06:09:54;4.85;;;1.60;;
31442;SDS011;18065;55.876;9.830;2023-02-08T06:12:22;6.30;;;1.65;;
31442;SDS011;18065;55.876;9.830;2023-02-08T06:14:51;4.03;;;1.48;;
31442;SDS011;18065;55.876;9.830;2023-02-08T06:17:20;3.88;;;1.73;;
31442;SDS011;18065;55.876;9.830;2023-02-08T06:19:48;5.32;;;1.90;;
31442;SDS011;18065;55.876;9.830;2023-02-08T06:22:17;7.40;;;2.15;;
31442;SDS011;18065;55.876;9.830;2023-02-08T06:24:49;7.47;;;2.00;;
31442;SDS011;18065;55.876;9.830;2023-02-08T06:27:17;7.28;;;2.00;;
31442;SDS011;18065;55.876;9.830;2023-02-08T06:29:46;4.35;;;2.10;;
31442;SDS011;18065;55.876;9.830;2023-02-08T06:32:15;5.95;;;2.40;;
31442;SDS011;18065;55.876;9.830;2023-02-08T06:34:43;6.40;;;2.22;;
31442;SDS011;18065;55.876;9.830;2023-02-08T06:37:15;5.25;;;2.55;;
31442;SDS011;18065;55.876;9.830;2023-02-08T06:39:44;4.20;;;1.95;;
31442;SDS011;18065;55.876;9.830;2023-02-08T06:42:15;8.45;;;2.40;;
31442;SDS011;18065;55.876;9.830;2023-02-08T06:44:44;6.35;;;2.60;;
31442;SDS011;18065;55.876;9.830;2023-02-08T06:47:14;6.75;;;2.30;;
31442;SDS011;18065;55.876;9.830;2023-02-08T06:49:43;11.50;;;2.80;;
31442;SDS011;18065;55.876;9.830;2023-02-08T06:52:11;8.23;;;2.60;;
31442;SDS011;18065;55.876;9.830;2023-02-08T06:54:40;6.95;;;2.88;;
31442;SDS011;18065;55.876;9.830;2023-02-08T06:57:09;6.13;;;2.22;;
31442;SDS011;18065;55.876;9.830;2023-02-08T06:59:40;5.43;;;2.42;;
31442;SDS011;18065;55.876;9.830;2023-02-08T07:02:10;9.10;;;3.10;;
31442;SDS011;18065;55.876;9.830;2023-02-08T07:04:40;8.10;;;2.60;;
31442;SDS011;18065;55.876;9.830;2023-02-08T07:07:10;4.97;;;2.85;;
31442;SDS011;18065;55.876;9.830;2023-02-08T07:09:39;4.45;;;2.70;;
31442;SDS011;18065;55.876;9.830;2023-02-08T07:12:08;7.30;;;2.65;;
31442;SDS011;18065;55.876;9.830;2023-02-08T07:14:37;6.35;;;2.67;;
31442;SDS011;18065;55.876;9.830;2023-02-08T07:17:10;6.50;;;2.60;;
31442;SDS011;18065;55.876;9.830;2023-02-08T07:19:40;7.57;;;2.65;;
31442;SDS011;18065;55.876;9.830;2023-02-08T07:22:08;4.22;;;2.60;;
31442;SDS011;18065;55.876;9.830;2023-02-08T07:24:38;5.68;;;2.63;;
31442;SDS011;18065;55.876;9.830;2023-02-08T07:27:08;7.10;;;3.05;;
31442;SDS011;18065;55.876;9.830;2023-02-08T07:29:42;4.75;;;2.47;;
31442;SDS011;18065;55.876;9.830;2023-02-08T07:32:10;5.05;;;2.10;;
31442;SDS011;18065;55.876;9.830;2023-02-08T07:34:39;3.50;;;2.38;;
31442;SDS011;18065;55.876;9.830;2023-02-08T07:37:08;5.28;;;2.65;;
31442;SDS011;18065;55.876;9.830;2023-02-08T07:39:36;4.68;;;2.08;;
31442;SDS011;18065;55.876;9.830;2023-02-08T07:42:06;4.80;;;2.55;;
31442;SDS011;18065;55.876;9.830;2023-02-08T07:44:35;5.35;;;2.80;;
31442;SDS011;18065;55.876;9.830;2023-02-08T07:47:06;5.38;;;2.35;;
31442;SDS011;18065;55.876;9.830;2023-02-08T07:49:35;5.72;;;2.40;;
31442;SDS011;18065;55.876;9.830;2023-02-08T07:52:04;4.65;;;2.20;;
31442;SDS011;18065;55.876;9.830;2023-02-08T07:54:33;8.05;;;2.42;;
31442;SDS011;18065;55.876;9.830;2023-02-08T07:57:01;4.70;;;2.20;;
31442;SDS011;18065;55.876;9.830;2023-02-08T07:59:30;5.47;;;1.98;;
31442;SDS011;18065;55.876;9.830;2023-02-08T08:01:59;4.10;;;2.20;;
31442;SDS011;18065;55.876;9.830;2023-02-08T08:04:30;5.20;;;2.53;;
31442;SDS011;18065;55.876;9.830;2023-02-08T08:06:59;4.18;;;2.38;;
31442;SDS011;18065;55.876;9.830;2023-02-08T08:09:27;4.53;;;2.35;;
31442;SDS011;18065;55.876;9.830;2023-02-08T08:11:56;5.60;;;2.72;;
31442;SDS011;18065;55.876;9.830;2023-02-08T08:14:26;6.93;;;2.75;;
31442;SDS011;18065;55.876;9.830;2023-02-08T08:16:55;6.15;;;2.28;;
31442;SDS011;18065;55.876;9.830;2023-02-08T08:19:23;3.90;;;2.20;;
31442;SDS011;18065;55.876;9.830;2023-02-08T08:21:55;4.63;;;2.35;;
31442;SDS011;18065;55.876;9.830;2023-02-08T08:24:24;5.38;;;2.70;;
31442;SDS011;18065;55.876;9.830;2023-02-08T08:26:52;3.42;;;2.28;;
31442;SDS011;18065;55.876;9.830;2023-02-08T08:29:21;4.82;;;2.17;;
31442;SDS011;18065;55.876;9.830;2023-02-08T08:31:50;3.35;;;2.10;;
31442;SDS011;18065;55.876;9.830;2023-02-08T08:34:19;3.53;;;2.13;;
31442;SDS011;18065;55.876;9.830;2023-02-08T08:36:56;6.55;;;2.80;;
31442;SDS011;18065;55.876;9.830;2023-02-08T08:39:26;4.88;;;2.47;;
31442;SDS011;18065;55.876;9.830;2023-02-08T08:41:56;5.05;;;2.70;;
31442;SDS011;18065;55.876;9.830;2023-02-08T08:44:25;4.32;;;2.47;;
31442;SDS011;18065;55.876;9.830;2023-02-08T08:46:54;4.60;;;2.60;;
31442;SDS011;18065;55.876;9.830;2023-02-08T08:49:23;5.05;;;2.10;;
31442;SDS011;18065;55.876;9.830;2023-02-08T08:51:52;4.50;;;2.25;;
31442;SDS011;18065;55.876;9.830;2023-02-08T08:54:24;6.00;;;2.58;;
31442;SDS011;18065;55.876;9.830;2023-02-08T08:56:53;3.38;;;2.10;;
31442;SDS011;18065;55.876;9.830;2023-02-08T08:59:22;4.63;;;2.22;;
31442;SDS011;18065;55.876;9.830;2023-02-08T09:01:51;4.00;;;2.30;;
31442;SDS011;18065;55.876;9.830;2023-02-08T09:04:19;4.50;;;2.00;;
31442;SDS011;18065;55.876;9.830;2023-02-08T09:06:49;3.67;;;2.15;;
31442;SDS011;18065;55.876;9.830;2023-02-08T09:09:18;4.65;;;2.58;;
31442;SDS011;18065;55.876;9.830;2023-02-08T09:11:49;3.97;;;2.45;;
31442;SDS011;18065;55.876;9.830;2023-02-08T09:14:18;4.47;;;2.45;;
31442;SDS011;18065;55.876;9.830;2023-02-08T09:16:47;2.95;;;2.10;;
31442;SDS011;18065;55.876;9.830;2023-02-08T09:19:16;4.15;;;1.90;;
31442;SDS011;18065;55.876;9.830;2023-02-08T09:21:45;4.72;;;1.90;;
31442;SDS011;18065;55.876;9.830;2023-02-08T09:24:14;4.82;;;2.22;;
31442;SDS011;18065;55.876;9.830;2023-02-08T09:26:43;4.55;;;2.15;;
31442;SDS011;18065;55.876;9.830;2023-02-08T09:29:15;3.30;;;1.90;;
31442;SDS011;18065;55.876;9.830;2023-02-08T09:31:44;3.80;;;2.10;;
31442;SDS011;18065;55.876;9.830;2023-02-08T09:34:12;2.85;;;1.70;;
31442;SDS011;18065;55.876;9.830;2023-02-08T09:36:41;5.80;;;2.33;;
31442;SDS011;18065;55.876;9.830;2023-02-08T09:39:10;3.55;;;1.88;;
31442;SDS011;18065;55.876;9.830;2023-02-08T09:41:46;3.90;;;2.10;;
31442;SDS011;18065;55.876;9.830;2023-02-08T09:44:42;3.25;;;2.05;;
31442;SDS011;18065;55.876;9.830;2023-02-08T09:47:22;3.78;;;2.22;;
31442;SDS011;18065;55.876;9.830;2023-02-08T09:49:56;4.53;;;2.33;;
31442;SDS011;18065;55.876;9.830;2023-02-08T09:52:32;3.20;;;1.90;;
31442;SDS011;18065;55.876;9.830;2023-02-08T09:55:11;3.35;;;2.00;;
31442;SDS011;18065;55.876;9.830;2023-02-08T09:57:46;4.80;;;2.20;;
31442;SDS011;18065;55.876;9.830;2023-02-08T10:00:23;2.63;;;1.60;;
31442;SDS011;18065;55.876;9.830;2023-02-08T10:02:58;3.58;;;1.92;;
31442;SDS011;18065;55.876;9.830;2023-02-08T10:05:30;3.90;;;1.80;;
31442;SDS011;18065;55.876;9.830;2023-02-08T10:07:59;3.58;;;2.08;;
31442;SDS011;18065;55.876;9.830;2023-02-08T10:10:32;3.08;;;2.05;;
31442;SDS011;18065;55.876;9.830;2023-02-08T10:13:11;3.05;;;2.00;;
31442;SDS011;18065;55.876;9.830;2023-02-08T10:15:54;3.22;;;2.20;;
31442;SDS011;18065;55.876;9.830;2023-02-08T10:18:33;2.30;;;1.80;;
31442;SDS011;18065;55.876;9.830;2023-02-08T10:21:17;3.53;;;2.00;;
31442;SDS011;18065;55.876;9.830;2023-02-08T10:24:06;3.13;;;2.00;;
31442;SDS011;18065;55.876;9.830;2023-02-08T10:26:47;3.17;;;2.10;;
31442;SDS011;18065;55.876;9.830;2023-02-08T10:29:32;3.05;;;1.92;;
31442;SDS011;18065;55.876;9.830;2023-02-08T10:32:20;2.80;;;1.88;;
31442;SDS011;18065;55.876;9.830;2023-02-08T10:35:10;3.63;;;2.38;;
31442;SDS011;18065;55.876;9.830;2023-02-08T10:37:54;4.10;;;1.90;;
31442;SDS011;18065;55.876;9.830;2023-02-08T10:40:28;2.58;;;1.90;;
31442;SDS011;18065;55.876;9.830;2023-02-08T10:43:14;3.08;;;2.00;;
31442;SDS011;18065;55.876;9.830;2023-02-08T10:45:59;3.25;;;1.98;;
31442;SDS011;18065;55.876;9.830;2023-02-08T10:48:43;3.10;;;2.20;;
31442;SDS011;18065;55.876;9.830;2023-02-08T10:51:30;3.42;;;2.20;;
31442;SDS011;18065;55.876;9.830;2023-02-08T10:54:03;3.80;;;2.40;;
31442;SDS011;18065;55.876;9.830;2023-02-08T10:56:46;2.55;;;2.00;;
31442;SDS011;18065;55.876;9.830;2023-02-08T10:59:23;3.70;;;2.10;;
31442;SDS011;18065;55.876;9.830;2023-02-08T11:02:09;2.95;;;2.03;;
31442;SDS011;18065;55.876;9.830;2023-02-08T11:05:04;3.05;;;1.90;;
31442;SDS011;18065;55.876;9.830;2023-02-08T11:07:40;3.05;;;2.10;;
31442;SDS011;18065;55.876;9.830;2023-02-08T11:10:23;3.42;;;2.08;;
31442;SDS011;18065;55.876;9.830;2023-02-08T11:13:02;2.47;;;1.88;;
31442;SDS011;18065;55.876;9.830;2023-02-08T11:15:44;2.58;;;1.85;;
31442;SDS011;18065;55.876;9.830;2023-02-08T11:18:20;3.95;;;2.10;;
31442;SDS011;18065;55.876;9.830;2023-02-08T11:21:03;2.85;;;2.03;;
31442;SDS011;18065;55.876;9.830;2023-02-08T11:23:41;2.70;;;2.03;;
31442;SDS011;18065;55.876;9.830;2023-02-08T11:26:32;3.10;;;2.10;;
31442;SDS011;18065;55.876;9.830;2023-02-08T11:29:18;2.47;;;1.90;;
31442;SDS011;18065;55.876;9.830;2023-02-08T11:32:03;3.53;;;1.80;;
31442;SDS011;18065;55.876;9.830;2023-02-08T11:34:50;2.63;;;2.00;;
31442;SDS011;18065;55.876;9.830;2023-02-08T11:37:43;3.47;;;2.17;;
31442;SDS011;18065;55.876;9.830;2023-02-08T11:40:16;2.72;;;2.00;;
31442;SDS011;18065;55.876;9.830;2023-02-08T11:42:52;2.78;;;1.70;;
31442;SDS011;18065;55.876;9.830;2023-02-08T11:45:24;2.72;;;1.90;;
31442;SDS011;18065;55.876;9.830;2023-02-08T11:48:04;3.50;;;1.85;;
31442;SDS011;18065;55.876;9.830;2023-02-08T11:50:50;2.85;;;1.70;;
31442;SDS011;18065;55.876;9.830;2023-02-08T11:53:24;2.47;;;1.60;;
31442;SDS011;18065;55.876;9.830;2023-02-08T11:56:08;2.20;;;1.48;;
31442;SDS011;18065;55.876;9.830;2023-02-08T11:58:54;2.72;;;1.75;;
31442;SDS011;18065;55.876;9.830;2023-02-08T12:01:25;2.38;;;1.80;;
31442;SDS011;18065;55.876;9.830;2023-02-08T12:03:56;2.88;;;2.10;;
31442;SDS011;18065;55.876;9.830;2023-02-08T12:09:51;1.85;;;1.50;;
31442;SDS011;18065;55.876;9.830;2023-02-08T12:12:37;1.95;;;1.60;;
31442;SDS011;18065;55.876;9.830;2023-02-08T12:15:19;2.87;;;2.00;;
31442;SDS011;18065;55.876;9.830;2023-02-08T12:18:08;1.92;;;1.50;;
31442;SDS011;18065;55.876;9.830;2023-02-08T12:20:52;2.08;;;1.73;;
31442;SDS011;18065;55.876;9.830;2023-02-08T12:26:22;1.80;;;1.48;;
31442;SDS011;18065;55.876;9.830;2023-02-08T12:29:05;2.83;;;1.80;;
31442;SDS011;18065;55.876;9.830;2023-02-08T12:31:45;2.10;;;1.67;;
31442;SDS011;18065;55.876;9.830;2023-02-08T12:34:29;3.35;;;1.77;;
31442;SDS011;18065;55.876;9.830;2023-02-08T12:37:16;2.08;;;1.65;;
31442;SDS011;18065;55.876;9.830;2023-02-08T12:40:10;3.00;;;1.80;;
31442;SDS011;18065;55.876;9.830;2023-02-08T12:43:06;1.90;;;1.58;;
31442;SDS011;18065;55.876;9.830;2023-02-08T12:45:50;2.47;;;1.65;;
31442;SDS011;18065;55.876;9.830;2023-02-08T12:48:31;2.70;;;1.80;;
31442;SDS011;18065;55.876;9.830;2023-02-08T12:51:11;2.47;;;1.80;;
31442;SDS011;18065;55.876;9.830;2023-02-08T12:53:49;1.98;;;1.75;;
31442;SDS011;18065;55.876;9.830;2023-02-08T12:56:22;2.90;;;1.75;;
31442;SDS011;18065;55.876;9.830;2023-02-08T13:01:30;2.65;;;1.83;;
31442;SDS011;18065;55.876;9.830;2023-02-08T13:04:02;2.35;;;1.67;;
31442;SDS011;18065;55.876;9.830;2023-02-08T13:09:07;2.42;;;2.00;;
31442;SDS011;18065;55.876;9.830;2023-02-08T13:11:46;2.67;;;1.90;;
31442;SDS011;18065;55.876;9.830;2023-02-08T13:14:24;3.63;;;1.70;;
31442;SDS011;18065;55.876;9.830;2023-02-08T13:17:04;2.20;;;1.70;;
31442;SDS011;18065;55.876;9.830;2023-02-08T13:19:41;2.05;;;1.48;;
31442;SDS011;18065;55.876;9.830;2023-02-08T13:22:20;2.55;;;1.60;;
31442;SDS011;18065;55.876;9.830;2023-02-08T13:24:50;2.47;;;1.38;;
31442;SDS011;18065;55.876;9.830;2023-02-08T13:27:21;1.77;;;1.50;;
31442;SDS011;18065;55.876;9.830;2023-02-08T13:29:52;2.15;;;1.83;;
31442;SDS011;18065;55.876;9.830;2023-02-08T13:32:22;3.05;;;1.70;;
31442;SDS011;18065;55.876;9.830;2023-02-08T13:34:56;2.03;;;1.58;;
31442;SDS011;18065;55.876;9.830;2023-02-08T13:37:28;1.92;;;1.65;;
31442;SDS011;18065;55.876;9.830;2023-02-08T13:40:00;2.20;;;1.65;;
31442;SDS011;18065;55.876;9.830;2023-02-08T13:42:34;2.17;;;1.60;;
31442;SDS011;18065;55.876;9.830;2023-02-08T13:45:10;1.63;;;1.52;;
31442;SDS011;18065;55.876;9.830;2023-02-08T13:47:54;1.55;;;1.40;;
31442;SDS011;18065;55.876;9.830;2023-02-08T13:50:42;1.75;;;1.60;;
31442;SDS011;18065;55.876;9.830;2023-02-08T13:53:13;1.98;;;1.67;;
31442;SDS011;18065;55.876;9.830;2023-02-08T14:01:34;1.85;;;1.40;;
31442;SDS011;18065;55.876;9.830;2023-02-08T14:04:16;3.20;;;1.33;;
31442;SDS011;18065;55.876;9.830;2023-02-08T14:06:57;2.42;;;1.70;;
31442;SDS011;18065;55.876;9.830;2023-02-08T14:12:05;2.10;;;1.60;;
31442;SDS011;18065;55.876;9.830;2023-02-08T14:14:41;2.78;;;1.80;;
31442;SDS011;18065;55.876;9.830;2023-02-08T14:17:14;1.20;;;1.10;;
31442;SDS011;18065;55.876;9.830;2023-02-08T14:19:54;2.25;;;1.52;;
31442;SDS011;18065;55.876;9.830;2023-02-08T14:22:25;1.65;;;1.40;;
31442;SDS011;18065;55.876;9.830;2023-02-08T14:24:59;2.00;;;1.50;;
31442;SDS011;18065;55.876;9.830;2023-02-08T14:27:33;2.13;;;1.65;;
31442;SDS011;18065;55.876;9.830;2023-02-08T14:30:05;1.73;;;1.60;;
31442;SDS011;18065;55.876;9.830;2023-02-08T14:32:49;1.58;;;1.30;;
31442;SDS011;18065;55.876;9.830;2023-02-08T14:35:22;2.35;;;1.55;;
31442;SDS011;18065;55.876;9.830;2023-02-08T14:40:52;1.67;;;1.52;;
31442;SDS011;18065;55.876;9.830;2023-02-08T14:43:30;2.75;;;1.45;;
31442;SDS011;18065;55.876;9.830;2023-02-08T14:49:07;2.88;;;1.60;;
31442;SDS011;18065;55.876;9.830;2023-02-08T14:51:39;1.80;;;1.20;;
31442;SDS011;18065;55.876;9.830;2023-02-08T14:59:19;1.85;;;1.45;;
31442;SDS011;18065;55.876;9.830;2023-02-08T15:01:53;1.58;;;1.30;;
31442;SDS011;18065;55.876;9.830;2023-02-08T15:04:27;2.63;;;1.67;;
31442;SDS011;18065;55.876;9.830;2023-02-08T15:07:01;1.52;;;1.23;;
31442;SDS011;18065;55.876;9.830;2023-02-08T15:09:40;1.92;;;1.33;;
31442;SDS011;18065;55.876;9.830;2023-02-08T15:12:13;1.80;;;1.27;;
31442;SDS011;18065;55.876;9.830;2023-02-08T15:14:46;1.75;;;1.30;;
31442;SDS011;18065;55.876;9.830;2023-02-08T15:17:18;1.42;;;1.30;;
31442;SDS011;18065;55.876;9.830;2023-02-08T15:19:54;2.20;;;1.77;;
31442;SDS011;18065;55.876;9.830;2023-02-08T15:22:30;1.27;;;1.17;;
31442;SDS011;18065;55.876;9.830;2023-02-08T15:25:01;1.88;;;1.55;;
31442;SDS011;18065;55.876;9.830;2023-02-08T15:27:44;1.20;;;1.10;;
31442;SDS011;18065;55.876;9.830;2023-02-08T15:30:21;1.60;;;1.30;;
31442;SDS011;18065;55.876;9.830;2023-02-08T15:33:00;4.05;;;1.20;;
31442;SDS011;18065;55.876;9.830;2023-02-08T15:35:33;3.45;;;1.48;;
31442;SDS011;18065;55.876;9.830;2023-02-08T15:38:03;2.15;;;1.25;;
31442;SDS011;18065;55.876;9.830;2023-02-08T15:40:32;1.23;;;1.13;;
31442;SDS011;18065;55.876;9.830;2023-02-08T15:43:03;3.63;;;1.20;;
31442;SDS011;18065;55.876;9.830;2023-02-08T15:45:38;1.45;;;1.08;;
31442;SDS011;18065;55.876;9.830;2023-02-08T15:48:06;1.52;;;1.27;;
31442;SDS011;18065;55.876;9.830;2023-02-08T15:50:38;2.22;;;1.55;;
31442;SDS011;18065;55.876;9.830;2023-02-08T15:53:10;1.30;;;1.20;;
31442;SDS011;18065;55.876;9.830;2023-02-08T15:55:44;1.67;;;1.23;;
31442;SDS011;18065;55.876;9.830;2023-02-08T15:58:16;2.08;;;1.60;;
31442;SDS011;18065;55.876;9.830;2023-02-08T16:00:52;1.65;;;1.30;;
31442;SDS011;18065;55.876;9.830;2023-02-08T16:03:22;1.55;;;1.40;;
31442;SDS011;18065;55.876;9.830;2023-02-08T16:05:56;2.78;;;1.58;;